createdAt,value
2022-08-10T00:02:48.507Z,1.33
2022-08-10T00:06:05.160Z,1.10
2022-08-10T00:15:04.585Z,2.40
2022-08-10T00:18:34.341Z,1.77
2022-08-10T00:21:44.338Z,2.40
2022-08-10T00:25:04.162Z,1.70
2022-08-10T00:31:24.227Z,2.07
2022-08-10T00:34:28.191Z,1.50
2022-08-10T00:38:01.488Z,1.50
2022-08-10T00:41:05.221Z,1.40
2022-08-10T00:44:36.231Z,2.97
2022-08-10T00:47:41.592Z,2.43
2022-08-10T00:51:03.351Z,2.50
2022-08-10T00:54:38.330Z,3.40
2022-08-10T00:57:55.401Z,2.20
2022-08-10T01:02:09.786Z,1.83
2022-08-10T01:04:39.826Z,2.07
2022-08-10T01:08:03.317Z,3.35
2022-08-10T01:12:46.991Z,1.80
2022-08-10T01:14:41.678Z,1.90
2022-08-10T01:17:57.544Z,2.93
2022-08-10T01:21:36.459Z,2.10
2022-08-10T01:25:00.466Z,2.03
2022-08-10T01:28:33.602Z,2.30
2022-08-10T01:31:53.527Z,3.47
2022-08-10T01:35:24.393Z,1.57
2022-08-10T01:38:40.757Z,2.03
2022-08-10T01:42:14.688Z,3.37
2022-08-10T01:45:45.439Z,3.60
2022-08-10T01:52:18.206Z,2.95
2022-08-10T01:55:46.490Z,3.03
2022-08-10T01:59:02.440Z,2.10
2022-08-10T02:02:33.837Z,2.43
2022-08-10T02:06:04.471Z,2.75
2022-08-10T02:09:25.490Z,2.43
2022-08-10T02:12:53.457Z,3.00
2022-08-10T02:16:09.930Z,3.23
2022-08-10T02:19:46.499Z,3.17
2022-08-10T02:23:02.635Z,4.47
2022-08-10T02:29:27.912Z,3.80
2022-08-10T02:32:58.574Z,4.27
2022-08-10T02:39:28.650Z,4.20
2022-08-10T02:45:22.446Z,3.80
2022-08-10T02:46:23.738Z,3.10
2022-08-10T02:49:39.742Z,4.30
2022-08-10T02:53:51.734Z,5.77
2022-08-10T02:56:26.673Z,3.83
2022-08-10T03:00:03.664Z,4.53
2022-08-10T03:03:20.902Z,5.00
2022-08-10T03:06:36.008Z,3.90
2022-08-10T03:09:54.844Z,5.37
2022-08-10T03:13:23.943Z,4.63
2022-08-10T03:16:39.791Z,3.17
2022-08-10T03:20:35.196Z,5.83
2022-08-10T03:23:27.787Z,3.73
2022-08-10T03:26:40.773Z,3.25
2022-08-10T03:30:29.972Z,4.00
2022-08-10T03:33:23.845Z,3.60
2022-08-10T03:36:45.046Z,4.70
2022-08-10T03:40:14.853Z,3.75
2022-08-10T03:43:30.837Z,5.30
2022-08-10T03:47:01.865Z,4.93
2022-08-10T03:50:45.302Z,3.80
2022-08-10T03:54:05.557Z,2.87
2022-08-10T03:57:12.916Z,4.10
2022-08-10T04:00:35.649Z,4.07
2022-08-10T04:07:06.136Z,5.70
2022-08-10T04:10:36.842Z,3.97
2022-08-10T04:16:46.834Z,3.15
2022-08-10T04:20:18.397Z,4.07
2022-08-10T04:23:36.864Z,4.43
2022-08-10T04:26:51.260Z,3.30
2022-08-10T04:30:13.975Z,5.50
2022-08-10T04:33:41.920Z,2.93
2022-08-10T04:36:57.901Z,3.47
2022-08-10T04:40:30.503Z,3.83
2022-08-10T04:43:33.523Z,4.23
2022-08-10T04:47:08.037Z,5.10
2022-08-10T04:50:11.158Z,5.15
2022-08-10T04:53:30.192Z,5.20
2022-08-10T04:56:33.964Z,5.67
2022-08-10T05:00:17.042Z,5.03
2022-08-10T05:03:26.112Z,3.47
2022-08-10T05:06:45.125Z,4.23
2022-08-10T05:10:02.740Z,3.75
2022-08-10T05:16:06.214Z,5.33
2022-08-10T05:20:01.347Z,4.80
2022-08-10T05:22:43.001Z,4.13
2022-08-10T05:26:02.082Z,4.83
2022-08-10T05:29:06.154Z,5.70
2022-08-10T05:32:57.841Z,4.23
2022-08-10T05:35:57.509Z,5.10
2022-08-10T05:42:13.104Z,4.40
2022-08-10T05:45:17.250Z,3.33
2022-08-10T05:48:57.252Z,3.50
2022-08-10T05:51:52.346Z,4.45
2022-08-10T05:55:19.952Z,3.40
2022-08-10T05:58:40.246Z,4.77
2022-08-10T06:02:33.841Z,4.40
2022-08-10T06:05:42.498Z,3.63
2022-08-10T06:09:01.248Z,4.40
2022-08-10T06:12:55.718Z,4.30
2022-08-10T06:15:50.309Z,4.20
2022-08-10T06:19:25.401Z,4.87
2022-08-10T06:26:11.503Z,4.83
2022-08-10T06:32:29.392Z,4.87
2022-08-10T06:35:45.334Z,4.45
2022-08-10T06:39:32.457Z,4.20
2022-08-10T06:42:31.340Z,4.80
2022-08-10T06:49:02.497Z,4.20
2022-08-10T06:52:40.366Z,3.70
2022-08-10T06:55:55.556Z,4.15
2022-08-10T06:59:21.930Z,4.20
2022-08-10T07:02:35.674Z,4.67
2022-08-10T07:06:07.026Z,4.03
2022-08-10T07:09:27.517Z,3.60
2022-08-10T07:12:58.589Z,4.20
2022-08-10T07:16:18.689Z,3.70
2022-08-10T07:19:52.489Z,4.37
2022-08-10T07:23:56.122Z,2.90
2022-08-10T07:29:54.337Z,3.90
2022-08-10T07:32:52.584Z,3.53
2022-08-10T07:36:02.759Z,3.23
2022-08-10T07:40:03.020Z,3.73
2022-08-10T07:42:57.594Z,3.95
2022-08-10T07:46:31.508Z,2.50
2022-08-10T07:49:50.497Z,3.37
2022-08-10T07:53:21.592Z,4.03
2022-08-10T07:56:49.011Z,3.27
2022-08-10T08:00:09.633Z,2.50
2022-08-10T08:03:39.660Z,2.90
2022-08-10T08:06:55.693Z,3.35
2022-08-10T08:10:26.628Z,3.30
2022-08-10T08:13:46.642Z,2.43
2022-08-10T08:17:17.823Z,2.40
2022-08-10T08:20:33.588Z,2.10
2022-08-10T08:24:33.162Z,2.70
2022-08-10T08:27:20.608Z,2.90
2022-08-10T08:30:52.735Z,2.77
2022-08-10T08:34:08.781Z,2.90
2022-08-10T08:38:31.298Z,3.57
2022-08-10T08:40:52.718Z,3.10
2022-08-10T08:44:23.932Z,3.40
2022-08-10T08:48:03.105Z,2.80
2022-08-10T08:52:12.387Z,2.20
2022-08-10T08:54:46.898Z,3.23
2022-08-10T08:58:15.843Z,2.57
2022-08-10T09:01:38.207Z,2.17
2022-08-10T09:05:06.835Z,3.77
2022-08-10T09:08:25.899Z,1.93
2022-08-10T09:12:00.861Z,3.03
2022-08-10T09:15:40.448Z,1.87
2022-08-10T09:18:46.905Z,1.50
2022-08-10T09:22:17.504Z,2.30
2022-08-10T09:25:36.422Z,2.03
2022-08-10T09:36:16.930Z,1.90
2022-08-10T09:38:27.868Z,2.03
2022-08-10T09:45:01.103Z,1.90
2022-08-10T09:48:33.134Z,1.90
2022-08-10T09:52:07.033Z,1.70
2022-08-10T09:56:17.304Z,1.50
2022-08-10T10:02:10.128Z,2.10
2022-08-10T10:05:51.279Z,1.30
2022-08-10T10:12:20.944Z,1.30
2022-08-10T10:56:15.516Z,1.50
2022-08-10T10:59:55.312Z,0.90
2022-08-10T11:03:06.481Z,1.45
2022-08-10T11:06:44.132Z,1.17
2022-08-10T11:10:03.747Z,1.00
2022-08-10T11:14:25.628Z,1.00
2022-08-10T11:16:57.300Z,1.12
2022-08-10T11:20:29.211Z,1.20
2022-08-10T11:23:46.166Z,1.17
2022-08-10T11:27:22.316Z,1.25
2022-08-10T11:34:04.004Z,1.23
2022-08-10T11:37:16.967Z,1.40
2022-08-10T11:40:33.526Z,1.15
2022-08-10T11:44:05.474Z,1.20
2022-08-10T11:47:21.462Z,1.00
2022-08-10T11:51:00.522Z,1.07
2022-08-10T11:54:19.426Z,1.25
2022-08-10T11:57:55.825Z,1.40
2022-08-10T12:04:15.554Z,1.00
2022-08-10T12:10:03.617Z,1.20
2022-08-10T12:11:06.711Z,1.10
2022-08-10T12:14:37.601Z,1.30
2022-08-10T12:17:54.673Z,1.35
2022-08-10T12:21:26.724Z,1.02
2022-08-10T12:24:39.382Z,1.10
2022-08-10T12:28:08.752Z,1.20
2022-08-10T12:31:46.278Z,1.00
2022-08-10T12:35:17.215Z,1.12
2022-08-10T12:38:32.583Z,0.98
2022-08-10T12:42:06.201Z,1.10
2022-08-10T12:45:21.159Z,1.30
2022-08-10T12:48:52.723Z,1.10
2022-08-10T12:52:09.054Z,0.90
2022-08-10T12:55:42.759Z,1.00
2022-08-10T12:59:01.618Z,1.45
2022-08-10T13:02:28.747Z,1.10
2022-08-10T13:06:00.183Z,0.90
2022-08-10T13:09:26.834Z,1.00
2022-08-10T13:12:42.646Z,1.30
2022-08-10T13:16:20.747Z,1.25
2022-08-10T13:19:39.061Z,1.10
2022-08-10T13:23:08.711Z,1.20
2022-08-10T13:26:24.998Z,1.33
2022-08-10T13:30:04.008Z,1.60
2022-08-10T13:34:41.575Z,1.25
2022-08-10T13:36:52.892Z,1.10
2022-08-10T13:40:12.043Z,1.10
2022-08-10T13:43:42.791Z,1.17
2022-08-10T13:46:58.889Z,1.17
2022-08-10T13:50:33.483Z,1.10
2022-08-10T13:53:48.932Z,1.30
2022-08-10T13:57:25.897Z,0.87
2022-08-10T14:00:59.097Z,1.25
2022-08-10T14:04:27.904Z,1.10
2022-08-10T14:08:00.426Z,1.00
2022-08-10T14:11:21.956Z,1.40
2022-08-10T14:14:41.849Z,1.20
2022-08-10T14:18:13.921Z,1.20
2022-08-10T14:21:29.942Z,1.33
2022-08-10T14:25:08.881Z,1.35
2022-08-10T14:28:42.993Z,1.30
2022-08-10T14:32:11.936Z,1.20
2022-08-10T14:36:21.251Z,1.60
2022-08-10T14:39:05.122Z,1.42
2022-08-10T14:42:27.448Z,1.17
2022-08-10T14:46:01.551Z,1.20
2022-08-10T14:49:26.503Z,1.20
2022-08-10T14:52:52.026Z,1.12
2022-08-10T14:56:16.076Z,1.05
2022-08-10T15:00:25.210Z,1.25
2022-08-10T15:03:11.275Z,0.95
2022-08-10T15:06:41.939Z,1.17
2022-08-10T15:10:00.989Z,1.00
2022-08-10T15:13:35.346Z,0.95
2022-08-10T15:16:55.118Z,1.30
2022-08-10T15:20:32.095Z,1.20
2022-08-10T15:24:05.595Z,1.37
2022-08-10T15:27:25.303Z,1.33
2022-08-10T15:30:50.088Z,1.40
2022-08-10T15:34:28.948Z,1.30
2022-08-10T15:37:44.097Z,1.40
2022-08-10T15:41:18.268Z,1.23
2022-08-10T15:44:36.281Z,1.60
2022-08-10T15:48:07.521Z,1.60
2022-08-10T15:51:33.710Z,1.30
2022-08-10T15:58:10.897Z,1.20
2022-08-10T16:04:45.892Z,1.45
2022-08-10T16:08:14.645Z,1.30
2022-08-10T16:11:37.555Z,1.25
2022-08-10T16:18:16.075Z,1.30
2022-08-10T16:21:46.039Z,1.37
2022-08-10T16:24:57.621Z,1.20
2022-08-10T16:28:29.308Z,1.20
2022-08-10T16:32:06.617Z,1.45
2022-08-10T16:35:37.982Z,1.12
2022-08-10T16:38:57.055Z,1.35
2022-08-10T16:42:29.137Z,1.45
2022-08-10T16:45:45.018Z,1.48
2022-08-10T16:49:16.026Z,1.40
2022-08-10T16:52:33.088Z,1.60
2022-08-10T16:56:04.846Z,1.27
2022-08-10T16:59:28.133Z,1.30
2022-08-10T17:02:58.103Z,1.30
2022-08-10T17:06:14.028Z,1.30
2022-08-10T17:09:50.053Z,1.33
2022-08-10T17:13:06.175Z,1.30
2022-08-10T17:16:41.185Z,1.05
2022-08-10T17:20:31.476Z,1.15
2022-08-10T17:23:35.194Z,1.37
2022-08-10T17:26:53.087Z,1.40
2022-08-10T17:30:15.890Z,1.50
2022-08-10T17:33:28.126Z,1.25
2022-08-10T17:37:00.120Z,1.27
2022-08-10T17:40:16.247Z,1.17
2022-08-10T17:44:02.068Z,1.20
2022-08-10T17:47:11.561Z,1.15
2022-08-10T17:50:47.338Z,1.50
2022-08-10T17:54:07.409Z,1.40
2022-08-10T17:57:36.350Z,1.40
2022-08-10T18:01:38.716Z,1.30
2022-08-10T18:04:41.812Z,1.40
2022-08-10T18:07:55.216Z,1.40
2022-08-10T18:11:27.303Z,1.20
2022-08-10T18:14:43.307Z,1.20
2022-08-10T18:18:14.200Z,1.05
2022-08-10T18:21:32.318Z,1.52
2022-08-10T18:25:09.372Z,1.27
2022-08-10T18:28:27.579Z,1.40
2022-08-10T18:32:01.299Z,1.70
2022-08-10T18:35:17.325Z,1.27
2022-08-10T18:38:47.399Z,0.87
2022-08-10T18:42:05.429Z,1.42
2022-08-10T18:48:52.896Z,1.90
2022-08-10T19:23:27.668Z,1.50
2022-08-10T19:44:17.800Z,1.30
2022-08-10T19:47:58.614Z,1.50
2022-08-10T19:58:17.638Z,1.70
2022-08-10T20:01:55.249Z,1.70
2022-08-10T20:05:21.769Z,1.70
2022-08-10T20:08:38.553Z,1.70
2022-08-10T20:12:10.559Z,1.90
2022-08-10T20:15:27.589Z,1.53
2022-08-10T20:22:46.806Z,1.95
2022-08-10T20:26:15.664Z,1.83
2022-08-10T20:29:57.329Z,1.50
2022-08-10T20:33:04.067Z,1.80
2022-08-10T20:36:23.765Z,1.80
2022-08-10T20:40:14.715Z,1.50
2022-08-10T20:46:52.805Z,1.50
2022-08-10T20:50:22.918Z,1.50
2022-08-10T20:53:40.669Z,1.60
2022-08-10T20:57:54.977Z,1.40
2022-08-10T21:00:35.895Z,2.03
2022-08-10T21:04:07.712Z,2.10
2022-08-10T21:08:05.110Z,1.80
2022-08-10T21:11:26.042Z,2.10
2022-08-10T21:14:48.154Z,1.90
2022-08-10T21:18:21.009Z,1.60
2022-08-10T21:21:42.154Z,1.90
2022-08-10T21:25:15.504Z,1.70
2022-08-10T21:28:49.853Z,2.00
2022-08-10T21:32:02.306Z,1.80
2022-08-10T21:35:20.388Z,1.80
2022-08-10T21:38:40.188Z,1.50
2022-08-10T21:42:03.678Z,1.73
2022-08-10T21:45:59.116Z,1.77
2022-08-10T21:49:07.679Z,1.63
2022-08-10T21:52:53.722Z,1.97
2022-08-10T21:56:14.330Z,2.10
2022-08-10T21:59:56.116Z,1.57
2022-08-10T22:03:15.876Z,1.90
2022-08-10T22:13:16.690Z,2.20
2022-08-10T22:16:51.378Z,1.75
2022-08-10T22:20:11.709Z,2.00
2022-08-10T22:23:51.934Z,1.90
2022-08-10T22:30:23.140Z,1.90
2022-08-10T22:33:58.477Z,1.90
2022-08-10T22:37:31.931Z,1.70
2022-08-10T22:41:07.997Z,2.30
2022-08-10T22:44:29.665Z,1.83
2022-08-10T22:48:11.129Z,2.30
2022-08-10T22:51:27.486Z,2.10
2022-08-10T22:55:20.189Z,1.80
2022-08-10T22:58:53.301Z,2.20
2022-08-10T23:02:22.552Z,2.10
2022-08-10T23:05:42.274Z,2.80
2022-08-10T23:09:11.366Z,3.00
2022-08-10T23:12:31.374Z,1.67
2022-08-10T23:19:11.121Z,2.75
2022-08-10T23:22:47.346Z,2.03
2022-08-10T23:26:06.323Z,2.35
2022-08-10T23:29:40.418Z,2.60
2022-08-10T23:32:59.745Z,1.40
2022-08-10T23:36:35.357Z,2.13
2022-08-10T23:39:51.415Z,1.40
2022-08-10T23:43:28.777Z,1.60
2022-08-10T23:46:39.401Z,1.60
2022-08-10T23:50:11.582Z,2.50
2022-08-10T23:53:27.667Z,1.40
2022-08-10T23:57:02.447Z,1.70
